createdAt,value
2018-07-19T00:01:27.571Z,16.60
2018-07-19T00:03:56.016Z,16.50
2018-07-19T00:06:24.443Z,16.50
2018-07-19T00:08:52.891Z,16.40
2018-07-19T00:11:21.322Z,16.30
2018-07-19T00:13:49.784Z,16.10
2018-07-19T00:16:18.216Z,15.90
2018-07-19T00:18:46.679Z,15.70
2018-07-19T00:21:15.102Z,15.60
2018-07-19T00:23:43.515Z,15.60
2018-07-19T00:26:11.983Z,15.50
2018-07-19T00:28:40.408Z,15.50
2018-07-19T00:31:08.864Z,15.40
2018-07-19T00:33:37.275Z,15.30
2018-07-19T00:36:05.707Z,15.20
2018-07-19T00:38:34.128Z,15.20
2018-07-19T00:41:02.581Z,15.20
2018-07-19T00:43:31.010Z,15.30
2018-07-19T00:45:59.448Z,15.40
2018-07-19T00:48:27.892Z,15.50
2018-07-19T00:50:56.331Z,15.50
2018-07-19T00:53:24.752Z,15.40
2018-07-19T00:55:53.196Z,15.30
2018-07-19T00:58:21.629Z,15.10
2018-07-19T01:00:50.068Z,15.00
2018-07-19T01:03:18.504Z,14.90
2018-07-19T01:05:46.939Z,14.90
2018-07-19T01:08:15.387Z,14.90
2018-07-19T01:10:43.866Z,14.90
2018-07-19T01:13:12.284Z,15.00
2018-07-19T01:15:40.692Z,15.20
2018-07-19T01:18:09.132Z,15.30
2018-07-19T01:20:37.590Z,15.40
2018-07-19T01:23:06.040Z,15.40
2018-07-19T01:25:34.514Z,15.50
2018-07-19T01:28:02.971Z,15.50
2018-07-19T01:30:31.394Z,15.60
2018-07-19T01:32:59.814Z,15.60
2018-07-19T01:35:28.240Z,15.50
2018-07-19T01:37:56.685Z,15.40
2018-07-19T01:40:25.101Z,15.30
2018-07-19T01:42:53.528Z,15.20
2018-07-19T01:45:21.935Z,15.20
2018-07-19T01:47:50.387Z,15.20
2018-07-19T01:50:18.831Z,15.20
2018-07-19T01:52:47.259Z,15.20
2018-07-19T01:55:15.668Z,15.20
2018-07-19T01:57:44.112Z,15.20
2018-07-19T02:00:12.610Z,15.20
2018-07-19T02:02:41.000Z,15.20
2018-07-19T02:05:09.468Z,15.20
2018-07-19T02:07:37.949Z,15.20
2018-07-19T02:10:06.415Z,15.10
2018-07-19T02:12:34.853Z,15.10
2018-07-19T02:15:03.344Z,15.00
2018-07-19T02:17:31.768Z,15.00
2018-07-19T02:20:00.217Z,15.00
2018-07-19T02:22:28.647Z,15.00
2018-07-19T02:24:57.183Z,15.00
2018-07-19T02:27:25.596Z,15.00
2018-07-19T02:29:54.033Z,15.00
2018-07-19T02:32:22.457Z,15.00
2018-07-19T02:34:50.891Z,14.90
2018-07-19T02:37:19.328Z,14.90
2018-07-19T02:39:47.769Z,14.80
2018-07-19T02:42:22.527Z,14.80
2018-07-19T02:44:51.011Z,14.70
2018-07-19T02:47:19.418Z,14.60
2018-07-19T02:49:47.836Z,14.60
2018-07-19T02:52:16.255Z,14.50
2018-07-19T02:54:44.721Z,14.50
2018-07-19T02:59:41.276Z,14.40
2018-07-19T03:02:09.734Z,14.40
2018-07-19T03:04:38.168Z,14.40
2018-07-19T03:07:06.647Z,14.40
2018-07-19T03:09:35.075Z,14.30
2018-07-19T03:12:03.528Z,14.30
2018-07-19T03:14:31.956Z,14.10
2018-07-19T03:17:00.387Z,14.00
2018-07-19T03:19:28.799Z,13.80
2018-07-19T03:21:57.252Z,13.60
2018-07-19T03:24:25.682Z,13.40
2018-07-19T03:29:22.271Z,13.30
2018-07-19T03:31:50.695Z,13.30
2018-07-19T03:34:19.157Z,13.40
2018-07-19T03:36:47.580Z,13.40
2018-07-19T03:39:16.048Z,13.50
2018-07-19T03:41:44.482Z,13.50
2018-07-19T03:44:12.940Z,13.40
2018-07-19T03:46:41.395Z,13.40
2018-07-19T03:49:09.853Z,13.40
2018-07-19T03:51:38.324Z,13.40
2018-07-19T03:54:06.827Z,13.40
2018-07-19T03:56:35.267Z,13.40
2018-07-19T03:59:03.787Z,13.50
2018-07-19T04:01:38.592Z,13.70
2018-07-19T04:04:07.074Z,13.80
2018-07-19T04:06:35.527Z,14.10
2018-07-19T04:09:05.883Z,14.30
2018-07-19T04:11:34.326Z,14.40
2018-07-19T04:14:02.792Z,14.70
2018-07-19T04:16:31.207Z,14.90
2018-07-19T04:18:59.691Z,15.10
2018-07-19T04:21:28.123Z,15.30
2018-07-19T04:23:56.560Z,15.50
2018-07-19T04:26:25.056Z,15.80
2018-07-19T04:28:53.487Z,16.00
2018-07-19T04:31:21.953Z,16.10
2018-07-19T04:33:50.457Z,16.20
2018-07-19T04:38:47.049Z,16.30
2018-07-19T04:41:15.511Z,16.50
2018-07-19T04:43:43.946Z,16.60
2018-07-19T04:46:12.391Z,16.90
2018-07-19T04:48:40.833Z,17.10
2018-07-19T04:51:09.311Z,17.40
2018-07-19T04:53:37.747Z,17.50
2018-07-19T04:56:06.224Z,17.70
2018-07-19T04:58:34.661Z,17.80
2018-07-19T05:01:03.125Z,17.90
2018-07-19T05:03:31.552Z,18.10
2018-07-19T05:05:59.991Z,18.20
2018-07-19T05:08:28.425Z,18.40
2018-07-19T05:10:56.892Z,18.70
2018-07-19T05:13:25.355Z,19.00
2018-07-19T05:15:53.797Z,19.30
2018-07-19T05:18:22.251Z,19.70
2018-07-19T05:20:57.428Z,20.10
2018-07-19T05:23:25.912Z,20.50
2018-07-19T05:25:54.339Z,20.90
2018-07-19T05:28:22.774Z,21.20
2018-07-19T05:30:51.192Z,21.50
2018-07-19T05:33:19.644Z,21.70
2018-07-19T05:35:48.279Z,22.00
2018-07-19T05:38:16.771Z,22.50
2018-07-19T05:40:45.203Z,22.90
2018-07-19T05:43:13.655Z,23.20
2018-07-19T05:45:42.104Z,23.30
2018-07-19T05:48:10.548Z,23.50
2018-07-19T05:50:39.375Z,23.70
2018-07-19T05:53:07.891Z,23.90
2018-07-19T05:55:36.350Z,24.30
2018-07-19T05:58:04.832Z,24.60
2018-07-19T06:00:33.300Z,25.00
2018-07-19T06:03:01.764Z,25.50
2018-07-19T06:05:30.232Z,25.90
2018-07-19T06:07:58.717Z,26.30
2018-07-19T06:10:27.141Z,26.70
2018-07-19T06:12:55.700Z,26.90
2018-07-19T06:15:24.123Z,26.90
2018-07-19T06:17:52.573Z,27.00
2018-07-19T06:20:21.028Z,27.10
2018-07-19T06:25:17.647Z,27.40
2018-07-19T06:27:46.094Z,27.60
2018-07-19T06:30:14.580Z,27.80
2018-07-19T06:32:43.015Z,28.10
2018-07-19T06:35:11.490Z,28.40
2018-07-19T06:37:39.928Z,28.70
2018-07-19T06:40:08.375Z,29.10
2018-07-19T06:42:36.813Z,29.50
2018-07-19T06:45:05.343Z,29.80
2018-07-19T06:47:33.772Z,29.70
2018-07-19T06:50:02.236Z,29.80
2018-07-19T06:52:30.699Z,29.90
2018-07-19T06:54:59.164Z,30.00
2018-07-19T06:57:27.622Z,29.80
2018-07-19T06:59:56.145Z,29.80
2018-07-19T07:04:52.943Z,29.60
2018-07-19T07:07:21.640Z,29.30
2018-07-19T07:09:50.065Z,28.90
2018-07-19T07:12:18.597Z,28.70
2018-07-19T07:14:47.072Z,28.60
2018-07-19T07:17:15.531Z,28.70
2018-07-19T07:19:43.980Z,28.90
2018-07-19T07:22:12.443Z,29.10
2018-07-19T07:24:40.884Z,29.00
2018-07-19T07:27:09.339Z,29.00
2018-07-19T07:29:37.757Z,28.80
2018-07-19T07:32:06.318Z,28.50
2018-07-19T07:34:34.773Z,28.50
2018-07-19T07:37:03.232Z,28.70
2018-07-19T07:39:31.716Z,29.20
2018-07-19T07:42:00.172Z,29.70
2018-07-19T07:44:28.615Z,30.10
2018-07-19T07:46:57.108Z,30.70
2018-07-19T07:49:25.544Z,30.80
2018-07-19T07:51:53.967Z,30.90
2018-07-19T07:54:22.411Z,31.10
2018-07-19T07:56:50.846Z,31.50
2018-07-19T07:59:19.346Z,31.80
2018-07-19T08:01:47.783Z,32.00
2018-07-19T08:04:16.251Z,32.10
2018-07-19T08:06:44.675Z,31.60
2018-07-19T08:09:13.160Z,31.10
2018-07-19T08:11:41.603Z,30.90
2018-07-19T08:14:10.086Z,30.80
2018-07-19T08:16:38.593Z,30.50
2018-07-19T08:19:07.079Z,30.40
2018-07-19T08:24:03.771Z,30.20
2018-07-19T08:26:32.256Z,30.10
2018-07-19T08:29:00.767Z,30.30
2018-07-19T08:31:29.200Z,30.30
2018-07-19T08:33:57.688Z,30.50
2018-07-19T08:36:26.148Z,30.80
2018-07-19T08:38:54.604Z,31.30
2018-07-19T08:41:23.080Z,31.30
2018-07-19T08:43:51.532Z,31.20
2018-07-19T08:46:20.032Z,31.30
2018-07-19T08:48:48.487Z,31.40
2018-07-19T08:51:16.960Z,31.60
2018-07-19T08:53:45.418Z,31.80
2018-07-19T08:56:13.885Z,31.60
2018-07-19T08:58:42.357Z,31.50
2018-07-19T09:01:10.875Z,31.80
2018-07-19T09:03:39.322Z,32.00
2018-07-19T09:06:07.827Z,32.50
2018-07-19T09:08:36.328Z,32.60
2018-07-19T09:11:04.968Z,32.30
2018-07-19T09:13:33.409Z,31.40
2018-07-19T09:16:01.877Z,31.30
2018-07-19T09:18:30.320Z,31.70
2018-07-19T09:20:58.816Z,32.00
2018-07-19T09:23:27.263Z,32.20
2018-07-19T09:25:55.740Z,31.90
2018-07-19T09:28:24.189Z,31.40
2018-07-19T09:30:52.704Z,31.10
2018-07-19T09:33:21.582Z,30.70
2018-07-19T09:35:50.292Z,30.20
2018-07-19T09:38:18.962Z,30.60
2018-07-19T09:40:47.519Z,31.10
2018-07-19T09:43:16.144Z,31.10
2018-07-19T09:45:44.622Z,30.80
2018-07-19T09:48:13.090Z,31.20
2018-07-19T09:50:41.572Z,32.00
2018-07-19T09:53:10.029Z,32.60
2018-07-19T09:55:38.474Z,33.10
2018-07-19T09:58:06.953Z,33.60
2018-07-19T10:00:40.728Z,32.90
2018-07-19T10:03:09.184Z,33.10
2018-07-19T10:05:37.710Z,33.50
2018-07-19T10:08:06.161Z,33.60
2018-07-19T10:10:34.617Z,33.70
2018-07-19T10:13:03.061Z,33.20
2018-07-19T10:15:31.529Z,33.00
2018-07-19T10:17:59.969Z,33.00
2018-07-19T10:20:28.392Z,32.90
2018-07-19T10:22:56.943Z,32.90
2018-07-19T10:25:25.387Z,32.80
2018-07-19T10:27:53.816Z,32.70
2018-07-19T10:30:22.263Z,32.50
2018-07-19T10:32:50.703Z,32.50
2018-07-19T10:35:19.172Z,32.70
2018-07-19T10:37:47.616Z,32.70
2018-07-19T10:40:16.070Z,32.50
2018-07-19T10:42:44.555Z,32.60
2018-07-19T10:45:13.007Z,32.50
2018-07-19T10:47:41.476Z,32.40
2018-07-19T10:50:09.936Z,32.20
2018-07-19T10:52:38.355Z,32.10
2018-07-19T10:55:06.828Z,32.30
2018-07-19T10:57:35.349Z,32.50
2018-07-19T11:00:04.004Z,32.80
2018-07-19T11:02:32.407Z,32.80
2018-07-19T11:05:00.844Z,32.80
2018-07-19T11:07:29.338Z,33.00
2018-07-19T11:09:57.844Z,33.50
2018-07-19T11:12:26.260Z,33.80
2018-07-19T11:14:54.716Z,33.90
2018-07-19T11:17:23.160Z,33.60
2018-07-19T11:19:51.588Z,32.50
2018-07-19T11:22:20.059Z,32.20
2018-07-19T11:24:48.484Z,32.70
2018-07-19T11:27:16.942Z,32.90
2018-07-19T11:29:45.368Z,33.10
2018-07-19T11:32:13.815Z,32.90
2018-07-19T11:34:42.240Z,33.00
2018-07-19T11:37:10.688Z,33.50
2018-07-19T11:39:39.123Z,33.40
2018-07-19T11:42:07.583Z,33.30
2018-07-19T11:44:36.040Z,33.50
2018-07-19T11:47:04.542Z,34.00
2018-07-19T11:49:32.973Z,33.80
2018-07-19T11:52:01.455Z,33.20
2018-07-19T11:54:29.891Z,32.80
2018-07-19T11:56:58.349Z,32.80
2018-07-19T11:59:26.774Z,33.10
2018-07-19T12:01:55.227Z,33.40
2018-07-19T12:04:23.664Z,33.70
2018-07-19T12:06:52.087Z,33.60
2018-07-19T12:09:20.540Z,33.60
2018-07-19T12:11:48.956Z,33.70
2018-07-19T12:14:17.391Z,33.80
2018-07-19T12:16:45.807Z,33.70
2018-07-19T12:19:14.241Z,33.70
2018-07-19T12:21:42.652Z,33.70
2018-07-19T12:24:11.088Z,33.90
2018-07-19T12:29:07.681Z,33.80
2018-07-19T12:31:36.113Z,33.40
2018-07-19T12:34:04.565Z,33.10
2018-07-19T12:36:33.004Z,32.80
2018-07-19T12:39:01.467Z,32.80
2018-07-19T12:41:29.872Z,32.80
2018-07-19T12:43:58.332Z,33.00
2018-07-19T12:46:26.771Z,33.20
2018-07-19T12:48:55.251Z,33.10
2018-07-19T12:51:23.667Z,32.80
2018-07-19T12:56:20.232Z,33.40
2018-07-19T12:58:48.657Z,33.70
2018-07-19T13:01:17.335Z,33.90
2018-07-19T13:03:45.760Z,33.90
2018-07-19T13:06:14.188Z,33.90
2018-07-19T13:08:42.638Z,33.40
2018-07-19T13:13:39.240Z,32.50
2018-07-19T13:16:07.915Z,32.30
2018-07-19T13:18:36.348Z,32.50
2018-07-19T13:21:04.789Z,32.60
2018-07-19T13:23:33.224Z,32.70
2018-07-19T13:26:01.751Z,32.90
2018-07-19T13:28:30.188Z,33.00
2018-07-19T13:33:26.795Z,33.00
2018-07-19T13:35:55.235Z,32.80
2018-07-19T13:38:23.696Z,32.80
2018-07-19T13:40:52.509Z,32.80
2018-07-19T13:43:21.006Z,32.60
2018-07-19T13:45:49.440Z,32.40
2018-07-19T13:48:17.939Z,32.50
2018-07-19T13:50:46.348Z,32.40
2018-07-19T13:53:36.844Z,32.50
2018-07-19T13:56:06.550Z,32.70
2018-07-19T13:58:35.659Z,32.70
2018-07-19T14:01:04.204Z,32.80
2018-07-19T14:03:32.824Z,32.80
2018-07-19T14:06:01.901Z,32.80
2018-07-19T14:08:30.378Z,32.80
2018-07-19T14:10:58.821Z,32.80
2018-07-19T14:13:27.282Z,32.80
2018-07-19T14:15:55.718Z,32.70
2018-07-19T14:18:24.168Z,32.40
2018-07-19T14:20:52.628Z,32.20
2018-07-19T14:23:21.088Z,32.30
2018-07-19T14:25:49.515Z,32.30
2018-07-19T14:28:17.997Z,32.10
2018-07-19T14:30:46.438Z,32.10
2018-07-19T14:33:14.924Z,32.00
2018-07-19T14:35:43.368Z,32.00
2018-07-19T14:38:11.810Z,32.10
2018-07-19T14:40:40.272Z,32.10
2018-07-19T14:43:08.715Z,31.90
2018-07-19T14:45:37.195Z,31.80
2018-07-19T14:48:05.656Z,31.90
2018-07-19T14:50:34.116Z,31.80
2018-07-19T14:53:02.567Z,31.90
2018-07-19T14:55:31.016Z,31.90
2018-07-19T14:57:59.451Z,31.90
2018-07-19T15:00:28.011Z,31.70
2018-07-19T15:02:56.452Z,31.70
2018-07-19T15:05:24.923Z,31.80
2018-07-19T15:07:53.351Z,31.70
2018-07-19T15:10:21.795Z,31.40
2018-07-19T15:12:50.209Z,31.40
2018-07-19T15:15:18.661Z,31.40
2018-07-19T15:17:47.072Z,31.50
2018-07-19T15:20:15.547Z,31.40
2018-07-19T15:22:43.973Z,31.40
2018-07-19T15:25:12.408Z,31.30
2018-07-19T15:27:40.843Z,31.20
2018-07-19T15:30:09.263Z,31.00
2018-07-19T15:32:37.711Z,31.00
2018-07-19T15:35:06.204Z,30.80
2018-07-19T15:37:34.690Z,30.90
2018-07-19T15:40:03.158Z,30.80
2018-07-19T15:42:31.595Z,30.50
2018-07-19T15:45:00.054Z,30.20
2018-07-19T15:47:28.508Z,29.80
2018-07-19T15:49:56.928Z,29.60
2018-07-19T15:52:25.356Z,29.70
2018-07-19T15:54:53.778Z,29.90
2018-07-19T15:57:22.221Z,29.90
2018-07-19T15:59:50.649Z,30.00
2018-07-19T16:02:19.107Z,30.10
2018-07-19T16:04:48.363Z,30.20
2018-07-19T16:07:16.811Z,30.20
2018-07-19T16:09:45.912Z,30.10
2018-07-19T16:12:14.377Z,29.90
2018-07-19T16:14:42.847Z,29.90
2018-07-19T16:17:11.289Z,29.70
2018-07-19T16:19:39.740Z,29.60
2018-07-19T16:22:08.189Z,29.50
2018-07-19T16:24:36.650Z,29.40
2018-07-19T16:27:05.107Z,29.40
2018-07-19T16:32:01.721Z,29.20
2018-07-19T16:34:30.173Z,29.10
2018-07-19T16:36:58.604Z,28.90
2018-07-19T16:39:27.056Z,28.90
2018-07-19T16:41:55.471Z,28.80
2018-07-19T16:44:23.923Z,28.80
2018-07-19T16:46:52.364Z,28.80
2018-07-19T16:49:20.821Z,28.80
2018-07-19T16:51:49.257Z,28.70
2018-07-19T16:54:17.783Z,28.80
2018-07-19T16:56:46.231Z,28.70
2018-07-19T16:59:14.664Z,28.60
2018-07-19T17:01:43.124Z,28.50
2018-07-19T17:04:11.544Z,28.40
2018-07-19T17:06:39.993Z,28.30
2018-07-19T17:09:09.921Z,28.30
2018-07-19T17:11:38.396Z,28.30
2018-07-19T17:16:35.164Z,28.10
2018-07-19T17:19:03.619Z,28.10
2018-07-19T17:21:32.072Z,28.00
2018-07-19T17:24:00.504Z,27.80
2018-07-19T17:26:28.969Z,27.60
2018-07-19T17:28:57.793Z,27.60
2018-07-19T17:31:26.246Z,27.40
2018-07-19T17:33:54.680Z,27.30
2018-07-19T17:36:23.137Z,27.30
2018-07-19T17:38:51.567Z,27.20
2018-07-19T17:41:20.079Z,27.00
2018-07-19T17:43:48.513Z,26.90
2018-07-19T17:46:17.451Z,26.80
2018-07-19T17:48:45.889Z,26.60
2018-07-19T17:51:14.357Z,26.50
2018-07-19T17:53:42.816Z,26.40
2018-07-19T17:56:11.305Z,26.40
2018-07-19T17:58:39.764Z,26.30
2018-07-19T18:01:08.583Z,26.20
2018-07-19T18:03:43.652Z,26.10
2018-07-19T18:06:12.091Z,25.90
2018-07-19T18:08:40.574Z,25.90
2018-07-19T18:11:09.001Z,25.80
2018-07-19T18:13:37.484Z,25.70
2018-07-19T18:16:05.911Z,25.50
2018-07-19T18:18:34.358Z,25.40
2018-07-19T18:21:02.793Z,25.20
2018-07-19T18:23:31.229Z,25.10
2018-07-19T18:25:59.647Z,25.00
2018-07-19T18:28:28.088Z,24.80
2018-07-19T18:30:56.528Z,24.60
2018-07-19T18:33:24.960Z,24.40
2018-07-19T18:35:53.376Z,24.20
2018-07-19T18:38:21.808Z,24.10
2018-07-19T18:40:50.459Z,24.00
2018-07-19T18:43:18.891Z,23.90
2018-07-19T18:45:47.301Z,23.70
2018-07-19T18:48:15.738Z,23.50
2018-07-19T18:50:44.155Z,23.40
2018-07-19T18:53:12.596Z,23.20
2018-07-19T18:55:41.020Z,23.00
2018-07-19T18:58:09.441Z,22.90
2018-07-19T19:00:37.891Z,22.80
2018-07-19T19:03:06.671Z,22.60
2018-07-19T19:05:35.260Z,22.40
2018-07-19T19:08:04.069Z,22.30
2018-07-19T19:10:32.500Z,22.20
2018-07-19T19:13:00.957Z,22.10
2018-07-19T19:15:29.419Z,22.00
2018-07-19T19:17:57.887Z,22.00
2018-07-19T19:20:26.363Z,21.90
2018-07-19T19:22:54.787Z,21.80
2018-07-19T19:25:23.243Z,21.70
2018-07-19T19:27:51.668Z,21.60
2018-07-19T19:30:20.123Z,21.50
2018-07-19T19:32:48.552Z,21.40
2018-07-19T19:35:17.012Z,21.30
2018-07-19T19:37:45.435Z,21.10
2018-07-19T19:40:13.964Z,21.00
2018-07-19T19:42:42.400Z,21.00
2018-07-19T19:45:10.889Z,20.90
2018-07-19T19:47:39.311Z,20.80
2018-07-19T19:50:07.800Z,20.70
2018-07-19T19:52:36.253Z,20.60
2018-07-19T19:55:04.744Z,20.40
2018-07-19T19:57:33.191Z,20.30
2018-07-19T20:00:01.641Z,20.20
2018-07-19T20:02:30.093Z,20.10
2018-07-19T20:04:58.547Z,20.00
2018-07-19T20:07:28.376Z,19.80
2018-07-19T20:09:56.853Z,19.70
2018-07-19T20:12:25.288Z,19.50
2018-07-19T20:14:53.732Z,19.30
2018-07-19T20:17:22.182Z,19.20
2018-07-19T20:19:50.627Z,19.10
2018-07-19T20:22:19.127Z,19.10
2018-07-19T20:24:47.564Z,19.10
2018-07-19T20:27:16.011Z,19.10
2018-07-19T20:29:44.481Z,19.10
2018-07-19T20:32:12.956Z,19.00
2018-07-19T20:34:41.395Z,19.00
2018-07-19T20:37:09.844Z,18.90
2018-07-19T20:39:38.273Z,18.80
2018-07-19T20:42:06.776Z,18.70
2018-07-19T20:44:35.218Z,18.70
2018-07-19T20:47:03.709Z,18.60
2018-07-19T20:49:32.143Z,18.40
2018-07-19T20:52:00.596Z,18.30
2018-07-19T20:54:29.041Z,18.20
2018-07-19T20:56:57.491Z,18.20
2018-07-19T20:59:25.930Z,18.10
2018-07-19T21:01:54.391Z,18.10
2018-07-19T21:04:22.815Z,18.00
2018-07-19T21:06:51.248Z,17.90
2018-07-19T21:09:19.715Z,17.90
2018-07-19T21:11:48.153Z,17.90
2018-07-19T21:14:16.620Z,17.90
2018-07-19T21:16:45.044Z,17.70
2018-07-19T21:19:13.501Z,17.50
2018-07-19T21:21:41.940Z,17.40
2018-07-19T21:24:10.494Z,17.50
2018-07-19T21:26:38.922Z,17.50
2018-07-19T21:29:07.368Z,17.50
2018-07-19T21:31:35.792Z,17.50
2018-07-19T21:34:04.302Z,17.50
2018-07-19T21:36:32.745Z,17.50
2018-07-19T21:39:01.191Z,17.40
2018-07-19T21:41:29.630Z,17.20
2018-07-19T21:43:58.071Z,17.00
2018-07-19T21:46:26.548Z,16.90
2018-07-19T21:48:54.991Z,16.70
2018-07-19T21:51:23.436Z,16.60
2018-07-19T21:53:51.875Z,16.40
2018-07-19T21:56:20.340Z,16.30
2018-07-19T21:58:48.800Z,16.20
2018-07-19T22:01:17.236Z,16.00
2018-07-19T22:03:45.672Z,16.10
2018-07-19T22:06:14.135Z,16.10
2018-07-19T22:08:42.566Z,16.10
2018-07-19T22:13:39.105Z,16.20
2018-07-19T22:16:07.579Z,16.30
2018-07-19T22:18:36.005Z,16.30
2018-07-19T22:21:04.443Z,16.30
2018-07-19T22:23:32.895Z,16.20
2018-07-19T22:26:01.358Z,16.20
2018-07-19T22:28:29.756Z,16.20
2018-07-19T22:30:58.183Z,16.20
2018-07-19T22:35:54.721Z,16.10
2018-07-19T22:38:23.149Z,16.10
2018-07-19T22:40:51.582Z,16.00
2018-07-19T22:43:19.987Z,15.90
2018-07-19T22:45:48.436Z,15.80
2018-07-19T22:48:16.852Z,15.80
2018-07-19T22:50:45.258Z,15.90
2018-07-19T22:53:13.684Z,15.90
2018-07-19T22:55:42.101Z,15.90
2018-07-19T22:58:10.524Z,16.00
2018-07-19T23:00:38.948Z,16.00
2018-07-19T23:03:07.479Z,15.90
2018-07-19T23:05:35.899Z,15.90
2018-07-19T23:08:04.401Z,15.90
2018-07-19T23:10:32.898Z,15.90
2018-07-19T23:13:01.379Z,15.80
2018-07-19T23:15:29.809Z,15.70
2018-07-19T23:17:58.259Z,15.80
2018-07-19T23:20:26.686Z,15.70
2018-07-19T23:22:56.848Z,15.70
2018-07-19T23:25:25.375Z,15.80
2018-07-19T23:27:54.466Z,15.80
2018-07-19T23:30:25.496Z,15.90
2018-07-19T23:32:53.988Z,15.90
2018-07-19T23:35:24.307Z,15.90
2018-07-19T23:37:54.440Z,16.00
2018-07-19T23:40:27.107Z,16.00
2018-07-19T23:42:59.716Z,16.00
2018-07-19T23:46:31.432Z,16.00
2018-07-19T23:49:04.088Z,16.00
2018-07-19T23:51:32.516Z,15.80
2018-07-19T23:54:00.968Z,15.60
2018-07-19T23:56:29.408Z,15.50
2018-07-19T23:58:57.891Z,15.50
